Time;durP1;ratioP1;P1;durP2;ratioP2;P2;SDS_P1;SDS_P2;PMS_P1;PMS_P2;Temp;Humidity;BMP_temperature;BMP_pressure;BME280_temperature;BME280_humidity;BME280_pressure;Samples;Min_cycle;Max_cycle;Signal;HPM_P1;HPM_P2
2023/05/14 00:01:53;;;;;;;10.30;9.40;;;13.40;99.90;;;;;;5049786;28;20177;-73
2023/05/14 00:04:19;;;;;;;10.57;9.50;;;13.40;99.90;;;;;;5030155;28;20202;-73
2023/05/14 00:06:45;;;;;;;11.37;10.37;;;13.40;99.90;;;;;;5049617;28;20424;-73
2023/05/14 00:09:11;;;;;;;11.40;10.30;;;13.30;99.90;;;;;;5015403;28;20186;-73
2023/05/14 00:11:37;;;;;;;10.87;9.87;;;13.40;99.90;;;;;;5049376;28;20413;-73
2023/05/14 00:14:03;;;;;;;10.03;9.03;;;13.40;99.90;;;;;;5031446;28;20456;-73
2023/05/14 00:16:29;;;;;;;10.50;9.40;;;13.30;99.90;;;;;;5031679;28;20181;-73
2023/05/14 00:18:54;;;;;;;11.87;10.80;;;13.30;99.90;;;;;;5049512;28;20213;-73
2023/05/14 00:21:20;;;;;;;10.63;9.73;;;13.30;99.90;;;;;;5049363;28;20174;-73
2023/05/14 00:23:46;;;;;;;11.53;10.30;;;13.20;99.90;;;;;;5049137;28;20197;-73
2023/05/14 00:26:11;;;;;;;11.23;10.30;;;13.20;99.90;;;;;;5049641;28;20169;-73
2023/05/14 00:28:37;;;;;;;21.73;10.20;;;13.20;99.90;;;;;;5049260;28;20182;-73
2023/05/14 00:31:03;;;;;;;11.30;10.20;;;13.20;99.90;;;;;;5049467;28;20173;-73
2023/05/14 00:33:29;;;;;;;11.10;10.03;;;13.10;99.90;;;;;;5049094;28;20197;-73
2023/05/14 00:35:54;;;;;;;10.93;10.03;;;13.10;99.90;;;;;;5049540;28;20597;-73
2023/05/14 00:38:22;;;;;;;11.50;10.40;;;13.00;99.90;;;;;;5049134;28;20185;-73
2023/05/14 00:40:50;;;;;;;11.90;10.80;;;13.00;99.90;;;;;;5049105;28;20608;-73
2023/05/14 00:43:22;;;;;;;10.97;9.97;;;12.90;99.90;;;;;;5048986;28;21130;-73
2023/05/14 00:45:50;;;;;;;10.90;9.80;;;12.90;99.90;;;;;;5048573;28;20413;-73
2023/05/14 00:48:16;;;;;;;11.20;10.03;;;12.80;99.90;;;;;;5048902;28;20415;-73
2023/05/14 00:50:42;;;;;;;11.10;10.10;;;12.80;99.90;;;;;;5048966;28;20799;-73
2023/05/14 00:53:09;;;;;;;12.13;10.93;;;12.70;99.90;;;;;;5048826;28;20460;-73
2023/05/14 00:55:40;;;;;;;10.93;9.93;;;12.60;99.90;;;;;;5049220;28;20416;-75
2023/05/14 00:58:10;;;;;;;11.00;10.10;;;12.70;99.90;;;;;;5048732;28;20423;-75
2023/05/14 01:00:37;;;;;;;11.17;10.27;;;12.70;99.90;;;;;;5048859;28;20945;-75
2023/05/14 01:03:04;;;;;;;12.67;11.17;;;12.60;99.90;;;;;;5048851;28;20421;-75
2023/05/14 01:05:35;;;;;;;11.57;10.57;;;12.60;99.90;;;;;;5030255;28;20417;-75
2023/05/14 01:08:12;;;;;;;11.63;10.43;;;12.60;99.90;;;;;;5030407;28;20408;-75
2023/05/14 01:11:24;;;;;;;10.60;9.70;;;12.60;99.90;;;;;;5047677;28;20424;-75
2023/05/14 01:14:05;;;;;;;11.37;10.30;;;12.60;99.90;;;;;;5043891;28;20463;-75
2023/05/14 01:16:32;;;;;;;11.17;10.17;;;12.60;99.90;;;;;;5030693;28;20424;-75
2023/05/14 01:19:00;;;;;;;11.40;10.40;;;12.60;99.90;;;;;;5048231;28;20460;-75
2023/05/14 01:21:41;;;;;;;14.00;10.93;;;12.60;99.90;;;;;;5028481;28;20405;-75
2023/05/14 01:24:07;;;;;;;11.97;10.70;;;12.50;99.90;;;;;;5028401;28;20504;-75
2023/05/14 01:26:34;;;;;;;13.83;11.67;;;12.50;99.90;;;;;;5028706;28;21144;-75
2023/05/14 01:29:07;;;;;;;12.17;11.07;;;12.50;99.90;;;;;;5028307;28;20421;-75
2023/05/14 01:31:37;;;;;;;12.23;11.00;;;12.40;99.90;;;;;;5028398;28;20424;-75
2023/05/14 01:34:05;;;;;;;12.27;11.03;;;12.50;99.90;;;;;;5028052;28;20491;-74
2023/05/14 01:36:32;;;;;;;12.40;11.30;;;12.50;99.90;;;;;;5028467;28;20413;-75
2023/05/14 01:39:00;;;;;;;11.83;10.63;;;12.40;99.90;;;;;;5036015;28;20498;-75
2023/05/14 01:41:26;;;;;;;13.37;12.23;;;12.40;99.90;;;;;;5048010;28;20574;-75
2023/05/14 01:43:52;;;;;;;14.43;13.13;;;12.40;99.90;;;;;;5030136;28;20526;-75
2023/05/14 01:46:18;;;;;;;14.53;13.13;;;12.30;99.90;;;;;;5048349;28;20470;-75
2023/05/14 01:48:44;;;;;;;15.03;13.60;;;12.40;99.90;;;;;;5047956;28;20408;-75
2023/05/14 01:51:10;;;;;;;13.33;12.13;;;12.40;99.90;;;;;;5048058;28;21115;-75
2023/05/14 01:53:35;;;;;;;12.83;11.53;;;12.50;99.90;;;;;;5047916;28;20186;-75
2023/05/14 01:56:01;;;;;;;12.10;11.10;;;12.60;99.90;;;;;;5048276;28;20174;-75
2023/05/14 01:58:27;;;;;;;12.33;11.33;;;12.60;99.90;;;;;;5047563;28;20232;-74
2023/05/14 02:00:52;;;;;;;12.00;10.70;;;12.60;99.90;;;;;;5048138;28;20551;-75
2023/05/14 02:03:18;;;;;;;12.30;11.20;;;12.60;99.90;;;;;;5047675;28;20194;-75
2023/05/14 02:05:44;;;;;;;12.03;11.03;;;12.50;99.90;;;;;;5047383;28;20891;-75
2023/05/14 02:08:10;;;;;;;12.73;10.90;;;12.50;99.90;;;;;;5029615;28;20182;-75
2023/05/14 02:10:35;;;;;;;12.87;11.67;;;12.40;99.90;;;;;;5047779;28;20184;-74
2023/05/14 02:13:02;;;;;;;12.00;10.50;;;12.40;99.90;;;;;;5047682;28;20638;-75
2023/05/14 02:15:28;;;;;;;12.23;11.03;;;12.40;99.90;;;;;;5048052;28;20264;-75
2023/05/14 02:17:54;;;;;;;11.70;10.60;;;12.30;99.90;;;;;;5047359;28;20417;-75
2023/05/14 02:20:19;;;;;;;12.77;11.57;;;12.30;99.90;;;;;;5047519;28;20205;-72
2023/05/14 02:22:45;;;;;;;12.67;11.47;;;12.30;99.90;;;;;;5047804;28;20208;-75
2023/05/14 02:25:11;;;;;;;12.47;11.47;;;12.20;99.90;;;;;;5047940;28;20185;-73
2023/05/14 02:27:37;;;;;;;12.30;11.20;;;12.20;99.90;;;;;;5047571;28;20174;-75
2023/05/14 02:30:03;;;;;;;12.03;10.80;;;12.20;99.90;;;;;;5047809;28;20413;-72
2023/05/14 02:32:29;;;;;;;11.83;10.90;;;12.20;99.90;;;;;;5047814;28;20264;-75
2023/05/14 02:34:54;;;;;;;11.27;10.33;;;12.10;99.90;;;;;;5047569;28;20507;-75
2023/05/14 02:37:20;;;;;;;12.27;11.17;;;12.20;99.90;;;;;;5047397;28;20177;-75
2023/05/14 02:39:46;;;;;;;11.27;10.37;;;12.10;99.90;;;;;;5047385;28;20581;-74
2023/05/14 02:42:11;;;;;;;12.70;11.60;;;12.10;99.90;;;;;;5047517;28;20261;-75
2023/05/14 02:44:37;;;;;;;12.63;11.30;;;12.10;99.90;;;;;;5047434;28;20186;-75
2023/05/14 02:47:03;;;;;;;12.63;11.60;;;12.00;99.90;;;;;;5047363;28;20185;-75
2023/05/14 02:49:28;;;;;;;12.70;11.60;;;12.00;99.90;;;;;;5047505;28;20181;-75
2023/05/14 02:51:54;;;;;;;12.70;11.47;;;12.00;99.90;;;;;;5047835;28;20174;-75
2023/05/14 02:54:20;;;;;;;13.43;12.13;;;12.00;99.90;;;;;;5029380;28;20202;-75
2023/05/14 02:56:46;;;;;;;13.20;11.37;;;12.00;99.90;;;;;;5047332;28;20600;-75
2023/05/14 02:59:11;;;;;;;13.57;12.37;;;12.10;99.90;;;;;;5047501;28;20198;-75
2023/05/14 03:01:37;;;;;;;13.03;11.73;;;12.10;99.90;;;;;;5047447;28;20408;-75
2023/05/14 03:04:03;;;;;;;14.40;12.03;;;12.10;99.90;;;;;;5046475;28;20718;-75
2023/05/14 03:06:28;;;;;;;12.17;11.07;;;12.10;99.90;;;;;;5047741;28;20177;-74
2023/05/14 03:08:54;;;;;;;12.80;11.67;;;12.00;99.90;;;;;;5047667;28;20182;-75
2023/05/14 03:11:20;;;;;;;11.10;10.20;;;12.00;99.90;;;;;;5050957;28;20200;-75
2023/05/14 03:13:46;;;;;;;12.93;11.83;;;11.90;99.90;;;;;;5032533;28;20769;-75
2023/05/14 03:16:12;;;;;;;13.10;11.90;;;11.90;99.90;;;;;;5051252;28;20495;-75
2023/05/14 03:18:38;;;;;;;12.87;11.67;;;11.90;99.90;;;;;;5050424;28;20545;-75
2023/05/14 03:21:03;;;;;;;12.50;11.30;;;11.90;99.90;;;;;;5033077;28;20416;-74
2023/05/14 03:23:30;;;;;;;12.70;11.40;;;11.90;99.90;;;;;;5050309;28;20435;-75
2023/05/14 03:25:56;;;;;;;12.70;11.23;;;11.90;99.90;;;;;;5051073;28;20162;-75
2023/05/14 03:28:22;;;;;;;12.40;11.33;;;11.90;99.90;;;;;;5050394;28;20477;-75
2023/05/14 03:30:48;;;;;;;12.90;11.53;;;11.80;99.90;;;;;;5050592;28;20454;-75
2023/05/14 03:33:13;;;;;;;13.10;11.80;;;11.80;99.90;;;;;;5050307;28;20202;-75
2023/05/14 03:35:39;;;;;;;13.13;11.83;;;11.90;99.90;;;;;;5050915;28;20173;-74
2023/05/14 03:38:05;;;;;;;13.83;12.47;;;11.80;99.90;;;;;;5031470;28;20264;-75
2023/05/14 03:40:31;;;;;;;12.33;11.20;;;11.90;99.90;;;;;;5048749;28;20231;-75
2023/05/14 03:42:56;;;;;;;12.47;11.27;;;11.90;99.90;;;;;;5050311;28;20202;-75
2023/05/14 03:45:22;;;;;;;12.43;11.10;;;11.90;99.90;;;;;;5032786;28;20974;-75
2023/05/14 03:47:48;;;;;;;12.20;11.10;;;11.90;99.90;;;;;;5048050;28;20169;-75
2023/05/14 03:50:13;;;;;;;16.00;11.70;;;11.90;99.90;;;;;;5050242;28;20186;-75
2023/05/14 03:52:39;;;;;;;13.87;12.43;;;11.90;99.90;;;;;;5032346;28;20276;-75
2023/05/14 03:55:05;;;;;;;12.67;11.47;;;11.90;99.90;;;;;;5050313;28;20181;-75
2023/05/14 03:57:31;;;;;;;12.37;11.17;;;11.90;99.90;;;;;;5050106;28;20193;-75
2023/05/14 03:59:57;;;;;;;11.57;10.47;;;11.90;99.90;;;;;;5050234;28;20554;-75
2023/05/14 04:02:22;;;;;;;12.37;11.10;;;11.80;99.90;;;;;;5050447;28;20163;-75
2023/05/14 04:04:48;;;;;;;11.90;10.80;;;11.80;99.90;;;;;;5049041;28;20180;-74
2023/05/14 04:07:14;;;;;;;13.60;12.40;;;11.70;99.90;;;;;;5050000;28;20177;-75
2023/05/14 04:09:39;;;;;;;13.20;12.03;;;11.70;99.90;;;;;;5049886;28;20184;-75
2023/05/14 04:12:06;;;;;;;14.73;13.23;;;11.70;99.90;;;;;;5050453;28;20173;-75
2023/05/14 04:14:31;;;;;;;12.47;11.37;;;11.70;99.90;;;;;;5049652;28;20209;-75
2023/05/14 04:16:57;;;;;;;12.40;11.30;;;11.70;99.90;;;;;;5032183;28;20418;-75
2023/05/14 04:19:22;;;;;;;13.70;12.40;;;11.70;99.90;;;;;;5049822;28;20229;-75
2023/05/14 04:21:48;;;;;;;12.77;11.67;;;11.70;99.90;;;;;;5048911;28;20178;-75
2023/05/14 04:24:15;;;;;;;12.40;11.20;;;11.70;99.90;;;;;;5049376;28;20189;-75
2023/05/14 04:26:40;;;;;;;12.40;11.27;;;11.70;99.90;;;;;;5032238;28;20261;-75
2023/05/14 04:29:06;;;;;;;12.00;10.90;;;11.70;99.90;;;;;;5049288;28;20527;-75
2023/05/14 04:31:32;;;;;;;12.93;11.07;;;11.70;99.90;;;;;;5049467;28;20178;-75
2023/05/14 04:33:57;;;;;;;13.07;11.77;;;11.80;99.90;;;;;;5048999;28;20197;-74
2023/05/14 04:36:23;;;;;;;11.73;10.53;;;11.80;99.90;;;;;;5049549;28;20182;-75
2023/05/14 04:38:49;;;;;;;12.37;10.97;;;11.80;99.90;;;;;;5048929;28;20176;-75
2023/05/14 04:41:15;;;;;;;12.10;11.10;;;11.80;99.90;;;;;;5071388;23;20291;-77
2023/05/14 04:43:41;;;;;;;13.87;11.47;;;11.80;99.90;;;;;;5032177;28;20273;-76
2023/05/14 04:46:06;;;;;;;12.37;11.00;;;11.80;99.90;;;;;;5050312;28;20184;-76
2023/05/14 04:48:32;;;;;;;11.83;10.63;;;11.80;99.90;;;;;;5031206;28;20823;-76
2023/05/14 04:50:58;;;;;;;11.47;10.47;;;11.80;99.90;;;;;;5049921;28;20198;-76
2023/05/14 04:53:23;;;;;;;12.03;10.83;;;11.80;99.90;;;;;;5050001;28;20181;-76
2023/05/14 04:55:49;;;;;;;12.50;11.40;;;11.80;99.90;;;;;;5031389;28;20186;-78
2023/05/14 04:58:15;;;;;;;12.77;11.67;;;11.90;99.90;;;;;;5050980;28;20182;-78
2023/05/14 05:00:40;;;;;;;13.43;11.60;;;12.00;99.90;;;;;;5034506;28;20201;-77
2023/05/14 05:03:06;;;;;;;12.70;11.47;;;12.00;99.90;;;;;;5018272;28;20182;-77
2023/05/14 05:05:32;;;;;;;12.77;11.77;;;12.10;99.90;;;;;;5051298;28;20170;-77
2023/05/14 05:07:57;;;;;;;12.73;11.53;;;12.10;99.90;;;;;;5034812;28;20170;-77
2023/05/14 05:10:23;;;;;;;11.97;10.87;;;12.10;99.90;;;;;;5051891;28;20189;-78
2023/05/14 05:12:49;;;;;;;12.47;11.27;;;12.10;99.90;;;;;;5052170;28;20253;-77
2023/05/14 05:15:15;;;;;;;12.23;11.13;;;12.20;99.90;;;;;;5034064;28;20664;-78
2023/05/14 05:17:41;;;;;;;12.47;11.27;;;12.20;99.90;;;;;;5052408;28;20181;-77
2023/05/14 05:20:10;;;;;;;11.03;10.10;;;12.20;99.90;;;;;;5051945;28;20244;-77
2023/05/14 05:22:36;;;;;;;11.83;10.77;;;12.30;99.90;;;;;;5052017;28;20261;-77
2023/05/14 05:25:05;;;;;;;13.23;11.83;;;12.30;99.90;;;;;;5051475;28;20432;-77
2023/05/14 05:27:32;;;;;;;12.33;11.17;;;12.40;99.90;;;;;;5052504;28;20492;-77
2023/05/14 05:29:58;;;;;;;11.33;10.13;;;12.40;99.90;;;;;;5034390;28;20415;-77
2023/05/14 05:32:24;;;;;;;11.93;10.83;;;12.50;99.90;;;;;;5034111;28;20471;-77
2023/05/14 05:34:50;;;;;;;12.50;11.40;;;12.50;99.90;;;;;;5017619;28;20415;-78
2023/05/14 05:37:16;;;;;;;12.60;11.47;;;12.50;99.90;;;;;;5051716;28;20197;-77
2023/05/14 05:39:42;;;;;;;14.37;12.93;;;12.50;99.90;;;;;;5051204;28;20526;-78
2023/05/14 05:42:09;;;;;;;10.40;9.50;;;12.60;99.90;;;;;;5034087;28;20211;-77
2023/05/14 05:44:35;;;;;;;11.47;10.37;;;12.60;99.90;;;;;;5017287;28;20184;-77
2023/05/14 05:47:00;;;;;;;11.00;9.90;;;12.60;99.90;;;;;;5015040;28;20932;-77
2023/05/14 05:49:26;;;;;;;10.70;9.70;;;12.70;99.90;;;;;;5051047;28;20224;-78
2023/05/14 05:51:52;;;;;;;10.57;9.60;;;12.70;99.90;;;;;;5033734;28;20224;-77
2023/05/14 05:54:17;;;;;;;11.10;10.07;;;12.80;99.90;;;;;;5017685;28;20518;-77
2023/05/14 05:56:43;;;;;;;11.33;8.90;;;13.00;99.90;;;;;;5052079;28;20692;-77
2023/05/14 05:59:09;;;;;;;10.10;9.20;;;13.10;99.90;;;;;;5034909;28;20201;-77
2023/05/14 06:01:35;;;;;;;9.53;8.63;;;13.30;99.90;;;;;;5017191;28;20891;-78
2023/05/14 06:04:00;;;;;;;8.83;8.03;;;13.50;99.90;;;;;;5030009;28;20182;-77
2023/05/14 06:06:27;;;;;;;9.30;8.40;;;13.60;99.90;;;;;;5031606;28;20177;-74
2023/05/14 06:08:53;;;;;;;9.70;8.90;;;13.80;99.90;;;;;;5043355;28;20186;-77
2023/05/14 06:11:20;;;;;;;9.00;8.20;;;14.00;99.90;;;;;;5029417;28;20436;-77
2023/05/14 06:13:47;;;;;;;9.97;8.97;;;14.10;99.90;;;;;;5047773;28;20198;-76
2023/05/14 06:16:13;;;;;;;8.43;7.63;;;14.30;99.90;;;;;;5048122;28;20440;-77
2023/05/14 06:18:39;;;;;;;8.00;7.37;;;14.40;99.90;;;;;;5044069;28;20487;-77
2023/05/14 06:21:05;;;;;;;8.77;8.07;;;14.50;99.90;;;;;;5048351;28;20202;-77
2023/05/14 06:23:31;;;;;;;8.47;7.77;;;14.70;99.90;;;;;;5049155;28;20257;-76
2023/05/14 06:25:56;;;;;;;8.90;7.90;;;14.80;99.90;;;;;;5049829;28;20503;-77
2023/05/14 06:28:22;;;;;;;8.90;8.00;;;14.90;99.90;;;;;;5049087;28;20435;-77
2023/05/14 06:30:52;;;;;;;8.10;7.47;;;15.00;99.90;;;;;;5029902;28;20285;-76
2023/05/14 06:33:22;;;;;;;8.50;7.80;;;15.10;99.90;;;;;;5047969;28;20197;-76
2023/05/14 06:35:47;;;;;;;7.70;7.10;;;15.20;99.90;;;;;;5049163;28;20451;-78
2023/05/14 06:38:13;;;;;;;8.37;7.57;;;15.30;99.90;;;;;;5050551;28;20428;-77
2023/05/14 06:40:39;;;;;;;9.20;8.33;;;15.40;99.90;;;;;;5047399;28;20214;-77
2023/05/14 06:43:05;;;;;;;8.80;8.00;;;15.50;99.90;;;;;;5050611;28;20588;-76
2023/05/14 06:45:31;;;;;;;8.57;7.77;;;15.50;99.90;;;;;;5035618;28;20197;-77
2023/05/14 06:47:56;;;;;;;8.53;7.93;;;15.60;99.90;;;;;;5035860;28;20443;-78
2023/05/14 06:50:22;;;;;;;9.77;8.47;;;15.60;99.90;;;;;;5056121;28;20251;-78
2023/05/14 06:52:48;;;;;;;10.10;8.33;;;15.60;99.90;;;;;;5021166;28;20266;-77
2023/05/14 06:55:14;;;;;;;9.00;8.10;;;15.70;99.90;;;;;;5046535;28;20273;-77
2023/05/14 06:57:39;;;;;;;9.53;8.73;;;15.70;99.90;;;;;;5051215;28;20242;-77
2023/05/14 07:00:06;;;;;;;9.23;8.43;;;15.80;99.90;;;;;;5033380;28;20262;-78
2023/05/14 07:02:31;;;;;;;8.80;7.90;;;15.90;99.90;;;;;;5033540;28;20228;-76
2023/05/14 07:04:57;;;;;;;8.63;7.83;;;15.90;99.90;;;;;;5051323;28;21117;-77
2023/05/14 07:07:23;;;;;;;9.07;8.27;;;16.00;99.90;;;;;;5013688;28;20198;-76
2023/05/14 07:09:48;;;;;;;9.40;8.37;;;16.10;99.90;;;;;;5033194;28;20220;-77
2023/05/14 07:12:14;;;;;;;8.50;7.70;;;16.10;99.90;;;;;;5033709;28;20653;-78
2023/05/14 07:14:40;;;;;;;8.00;7.20;;;16.20;99.90;;;;;;5051653;28;20695;-78
2023/05/14 07:17:05;;;;;;;9.30;7.43;;;16.30;99.90;;;;;;5051522;28;20178;-78
2023/05/14 07:19:31;;;;;;;7.23;6.63;;;16.30;99.90;;;;;;5049995;28;20201;-77
2023/05/14 07:21:57;;;;;;;7.67;6.93;;;16.40;99.90;;;;;;5051680;28;20197;-78
2023/05/14 07:24:23;;;;;;;7.50;6.80;;;16.50;99.90;;;;;;5051033;28;20170;-77
2023/05/14 07:26:48;;;;;;;7.10;6.40;;;16.50;99.90;;;;;;5033557;28;20717;-77
2023/05/14 07:29:14;;;;;;;6.83;6.10;;;16.60;99.90;;;;;;5051654;28;20185;-78
2023/05/14 07:31:40;;;;;;;8.80;6.70;;;16.60;99.90;;;;;;5015060;28;20219;-79
2023/05/14 07:34:10;;;;;;;6.50;6.00;;;16.70;99.90;;;;;;5050965;28;20182;-77
2023/05/14 07:36:36;;;;;;;6.60;6.10;;;16.80;99.90;;;;;;5033694;28;20247;-78
2023/05/14 07:39:01;;;;;;;5.87;5.37;;;16.80;99.90;;;;;;5033241;28;20956;-78
2023/05/14 07:41:27;;;;;;;5.90;5.40;;;16.90;99.90;;;;;;5048829;28;20225;-77
2023/05/14 07:43:53;;;;;;;6.90;6.30;;;16.90;99.90;;;;;;5050431;28;20582;-77
2023/05/14 07:46:18;;;;;;;7.57;6.97;;;17.00;99.90;;;;;;5031641;28;20796;-77
2023/05/14 07:48:44;;;;;;;7.33;6.73;;;17.00;99.90;;;;;;5029865;28;20190;-78
2023/05/14 07:51:10;;;;;;;8.03;6.90;;;17.10;99.90;;;;;;5051342;28;20263;-78
2023/05/14 07:53:36;;;;;;;7.23;6.57;;;17.10;99.90;;;;;;5032715;28;20190;-78
2023/05/14 07:56:02;;;;;;;7.53;6.90;;;17.20;99.90;;;;;;5014563;28;20943;-79
2023/05/14 07:58:27;;;;;;;7.83;7.13;;;17.10;99.90;;;;;;5050849;28;20205;-79
2023/05/14 08:00:53;;;;;;;7.70;7.10;;;17.20;99.90;;;;;;5050898;28;20217;-79
2023/05/14 08:03:19;;;;;;;7.20;6.37;;;17.20;99.90;;;;;;5051216;28;20545;-79
2023/05/14 08:05:45;;;;;;;6.13;5.63;;;17.20;99.90;;;;;;5033148;28;20412;-78
2023/05/14 08:08:11;;;;;;;6.27;5.77;;;17.20;99.90;;;;;;5048379;28;20321;-79
2023/05/14 08:10:37;;;;;;;7.40;6.80;;;17.20;99.90;;;;;;5047565;28;20211;-78
2023/05/14 08:13:03;;;;;;;5.60;5.10;;;17.20;99.90;;;;;;5032790;28;20872;-79
2023/05/14 08:15:29;;;;;;;5.17;4.77;;;17.20;99.90;;;;;;5050946;28;20416;-79
2023/05/14 08:17:54;;;;;;;5.10;4.10;;;17.20;99.90;;;;;;5032163;28;20678;-79
2023/05/14 08:20:20;;;;;;;4.83;4.33;;;17.20;99.90;;;;;;5031816;28;20467;-78
2023/05/14 08:22:46;;;;;;;4.07;3.77;;;17.30;99.90;;;;;;5032855;28;20211;-78
2023/05/14 08:25:12;;;;;;;4.10;3.80;;;17.30;99.90;;;;;;5033481;28;20495;-78
2023/05/14 08:27:38;;;;;;;4.83;3.73;;;17.30;99.90;;;;;;5033200;28;20224;-79
2023/05/14 08:30:05;;;;;;;4.47;3.90;;;17.30;99.90;;;;;;5033088;28;20194;-78
2023/05/14 08:32:30;;;;;;;3.93;3.63;;;17.40;99.90;;;;;;5050911;28;20225;-79
2023/05/14 08:34:56;;;;;;;4.40;3.80;;;17.40;99.90;;;;;;5050408;28;21024;-78
2023/05/14 08:37:22;;;;;;;3.50;3.07;;;17.40;99.90;;;;;;5050043;28;20182;-79
2023/05/14 08:39:48;;;;;;;3.50;3.30;;;17.40;99.90;;;;;;5032200;28;20240;-78
2023/05/14 08:42:17;;;;;;;3.53;3.23;;;17.40;99.90;;;;;;5050807;28;20202;-78
2023/05/14 08:44:48;;;;;;;2.83;2.63;;;17.50;99.90;;;;;;5027304;28;20433;-77
2023/05/14 08:47:16;;;;;;;3.17;2.77;;;17.50;99.90;;;;;;5049279;28;20420;-77
2023/05/14 08:49:45;;;;;;;3.80;3.50;;;17.50;99.90;;;;;;5049873;28;20814;-78
2023/05/14 08:52:11;;;;;;;3.30;3.10;;;17.60;99.90;;;;;;5031820;28;20436;-78
2023/05/14 08:54:39;;;;;;;3.20;3.00;;;17.70;99.90;;;;;;5049204;28;20422;-77
2023/05/14 08:57:05;;;;;;;3.37;3.10;;;17.70;99.90;;;;;;5049294;28;20424;-77
2023/05/14 08:59:31;;;;;;;3.70;3.10;;;17.80;99.90;;;;;;5043895;28;20483;-78
2023/05/14 09:02:03;;;;;;;5.17;3.50;;;17.90;99.90;;;;;;5049312;28;20437;-78
2023/05/14 09:04:31;;;;;;;3.27;3.07;;;17.90;99.90;;;;;;5028666;28;20657;-78
2023/05/14 09:07:00;;;;;;;3.10;2.80;;;18.00;99.60;;;;;;5048671;28;20413;-77
2023/05/14 09:09:27;;;;;;;3.40;3.10;;;18.00;98.90;;;;;;5049274;28;20421;-78
2023/05/14 09:11:53;;;;;;;3.33;3.10;;;18.20;98.40;;;;;;5049084;28;20463;-78
2023/05/14 09:14:19;;;;;;;4.43;3.47;;;18.20;98.90;;;;;;5031744;28;20417;-78
2023/05/14 09:16:47;;;;;;;6.20;3.60;;;18.40;98.60;;;;;;5031930;28;20768;-78
2023/05/14 09:19:14;;;;;;;4.13;3.83;;;18.40;99.60;;;;;;5050103;28;20447;-78
2023/05/14 09:21:40;;;;;;;3.87;3.57;;;18.60;99.90;;;;;;5031064;28;20494;-77
2023/05/14 09:24:07;;;;;;;4.10;3.80;;;18.70;99.90;;;;;;5049291;28;20423;-78
2023/05/14 09:26:33;;;;;;;5.53;3.27;;;18.70;99.50;;;;;;5049950;28;20404;-77
2023/05/14 09:29:01;;;;;;;4.20;3.90;;;18.80;99.30;;;;;;5048128;28;20440;-78
2023/05/14 09:31:31;;;;;;;4.60;4.10;;;18.90;99.20;;;;;;5052499;28;20441;-78
2023/05/14 09:33:58;;;;;;;3.73;3.53;;;19.00;99.60;;;;;;5050080;28;20867;-78
2023/05/14 09:36:28;;;;;;;3.97;3.57;;;19.10;98.40;;;;;;5045881;28;20904;-78
2023/05/14 09:38:57;;;;;;;4.57;4.17;;;19.20;98.00;;;;;;5048982;28;20786;-78
2023/05/14 09:41:23;;;;;;;4.70;4.40;;;19.30;99.60;;;;;;5049597;28;20471;-78
2023/05/14 09:43:50;;;;;;;3.70;3.40;;;19.40;99.90;;;;;;5034768;28;20429;-78
2023/05/14 09:46:16;;;;;;;4.10;3.80;;;19.50;99.80;;;;;;5052496;28;20412;-78
2023/05/14 09:48:42;;;;;;;3.63;3.40;;;19.50;99.10;;;;;;5052767;28;20463;-78
2023/05/14 09:51:10;;;;;;;4.50;4.10;;;19.60;98.60;;;;;;5033039;28;20475;-78
2023/05/14 09:53:36;;;;;;;4.00;3.70;;;19.60;97.90;;;;;;5031225;28;20185;-78
2023/05/14 09:56:01;;;;;;;4.20;3.90;;;19.70;98.60;;;;;;5052314;28;20416;-78
2023/05/14 09:58:28;;;;;;;4.37;3.80;;;19.80;99.30;;;;;;5013806;28;20189;-77
2023/05/14 10:00:56;;;;;;;3.83;3.53;;;19.80;98.80;;;;;;5048755;28;20255;-78
2023/05/14 10:03:25;;;;;;;4.20;3.60;;;19.90;97.90;;;;;;5048165;28;20785;-78
2023/05/14 10:05:52;;;;;;;3.93;3.63;;;20.00;96.10;;;;;;5046464;28;20428;-77
2023/05/14 10:08:29;;;;;;;4.20;3.90;;;20.00;96.40;;;;;;5030552;28;20412;-77
2023/05/14 10:10:57;;;;;;;4.50;3.83;;;20.10;97.30;;;;;;5030346;28;20444;-78
2023/05/14 10:13:29;;;;;;;3.90;3.60;;;20.20;96.60;;;;;;5030439;28;20448;-77
2023/05/14 10:16:08;;;;;;;3.70;3.40;;;20.20;95.80;;;;;;5047888;28;20452;-78
2023/05/14 10:18:42;;;;;;;3.90;3.60;;;20.30;97.30;;;;;;5016059;28;20416;-77
2023/05/14 10:21:10;;;;;;;3.73;3.43;;;20.30;95.50;;;;;;5052852;28;21042;-77
2023/05/14 10:23:37;;;;;;;3.70;3.40;;;20.40;95.60;;;;;;5049991;28;20408;-77
2023/05/14 10:26:03;;;;;;;4.30;3.80;;;20.50;94.80;;;;;;5053323;28;20777;-78
2023/05/14 10:28:30;;;;;;;3.57;3.37;;;20.50;93.90;;;;;;5052959;28;20413;-77
2023/05/14 10:30:58;;;;;;;3.63;3.33;;;20.60;94.70;;;;;;5032608;28;20440;-77
2023/05/14 10:33:24;;;;;;;4.33;3.27;;;20.60;95.50;;;;;;5053936;28;20427;-78
2023/05/14 10:35:53;;;;;;;4.00;3.20;;;20.60;94.80;;;;;;5037016;28;20932;-77
2023/05/14 10:38:28;;;;;;;3.80;3.50;;;20.70;95.20;;;;;;5052725;28;20182;-78
2023/05/14 10:40:56;;;;;;;3.40;3.20;;;20.70;94.70;;;;;;5072929;23;20541;-73
2023/05/14 10:43:26;;;;;;;3.70;3.17;;;20.70;95.60;;;;;;5043192;28;20487;-73
2023/05/14 10:45:52;;;;;;;3.50;3.20;;;20.80;97.20;;;;;;5040063;28;20477;-72
2023/05/14 10:48:18;;;;;;;3.43;3.13;;;20.90;97.10;;;;;;5038759;28;20524;-72
2023/05/14 10:50:46;;;;;;;3.10;2.90;;;21.00;95.90;;;;;;5047004;28;20447;-72
2023/05/14 10:53:12;;;;;;;3.90;3.60;;;21.00;96.00;;;;;;5026728;28;20433;-73
2023/05/14 10:55:38;;;;;;;3.80;3.50;;;21.10;96.00;;;;;;5012427;28;20515;-72
2023/05/14 10:58:05;;;;;;;4.23;3.50;;;21.10;95.20;;;;;;5028742;28;20855;-72
2023/05/14 11:00:34;;;;;;;4.00;3.70;;;21.10;94.50;;;;;;5023479;28;20897;-72
2023/05/14 11:03:03;;;;;;;7.73;3.47;;;21.20;94.80;;;;;;5023173;28;20438;-72
2023/05/14 11:05:30;;;;;;;3.70;3.50;;;21.20;93.70;;;;;;4997060;28;20457;-71
2023/05/14 11:07:57;;;;;;;4.60;4.20;;;21.30;94.50;;;;;;5021706;28;20847;-72
2023/05/14 11:10:24;;;;;;;3.70;3.40;;;21.30;92.30;;;;;;5025995;28;20775;-72
2023/05/14 11:12:51;;;;;;;3.90;3.50;;;21.40;92.90;;;;;;5023692;28;20789;-73
2023/05/14 11:15:20;;;;;;;4.30;4.00;;;21.30;93.10;;;;;;5000690;28;20905;-72
2023/05/14 11:17:47;;;;;;;4.30;3.90;;;21.40;94.50;;;;;;5021555;28;20444;-72
2023/05/14 11:20:13;;;;;;;3.87;3.53;;;21.40;93.50;;;;;;5003236;28;20449;-72
2023/05/14 11:22:40;;;;;;;4.37;3.97;;;21.50;93.60;;;;;;5021496;28;20432;-71
2023/05/14 11:25:08;;;;;;;4.37;4.03;;;21.50;92.20;;;;;;5018620;28;20474;-72
2023/05/14 11:27:36;;;;;;;3.90;3.60;;;21.60;94.10;;;;;;5022886;28;20472;-72
2023/05/14 11:30:02;;;;;;;5.83;3.30;;;21.70;92.70;;;;;;5020495;28;20449;-73
2023/05/14 11:32:30;;;;;;;4.23;3.93;;;21.70;91.20;;;;;;5032493;28;20494;-72
2023/05/14 11:34:56;;;;;;;4.83;4.43;;;21.70;92.60;;;;;;5032627;28;20447;-71
2023/05/14 11:37:22;;;;;;;4.07;3.77;;;21.70;94.90;;;;;;5033647;28;21264;-72
2023/05/14 11:39:52;;;;;;;4.50;4.10;;;21.70;92.00;;;;;;5023549;28;21213;-71
2023/05/14 11:42:18;;;;;;;4.47;4.07;;;21.70;93.70;;;;;;5027428;28;20237;-71
2023/05/14 11:44:50;;;;;;;4.97;4.57;;;21.80;95.00;;;;;;5026864;28;20432;-72
2023/05/14 11:47:18;;;;;;;4.73;3.87;;;21.80;92.70;;;;;;4994158;28;20445;-72
2023/05/14 11:49:44;;;;;;;4.20;3.80;;;21.80;90.90;;;;;;5030270;28;20445;-72
2023/05/14 11:52:15;;;;;;;4.50;3.90;;;21.80;91.10;;;;;;5025803;28;20448;-72
2023/05/14 11:54:43;;;;;;;4.27;3.87;;;21.80;91.10;;;;;;5005727;28;20439;-73
2023/05/14 11:57:11;;;;;;;4.43;4.03;;;21.80;93.10;;;;;;5029887;28;20464;-73
2023/05/14 11:59:37;;;;;;;4.20;3.80;;;21.70;92.20;;;;;;5029958;28;20464;-73
2023/05/14 12:02:04;;;;;;;4.63;4.13;;;21.70;92.00;;;;;;5030422;28;20474;-73
2023/05/14 12:04:30;;;;;;;5.57;4.07;;;21.70;92.00;;;;;;5029056;28;20428;-73
2023/05/14 12:06:58;;;;;;;4.63;4.23;;;21.70;90.80;;;;;;5027932;28;20513;-73
2023/05/14 12:09:24;;;;;;;4.60;4.20;;;21.70;90.90;;;;;;5029769;28;20433;-73
2023/05/14 12:11:51;;;;;;;4.40;3.73;;;21.80;91.30;;;;;;5029790;28;20440;-73
2023/05/14 12:14:21;;;;;;;4.30;3.80;;;21.80;92.00;;;;;;5029409;28;20413;-73
2023/05/14 12:16:48;;;;;;;4.57;4.17;;;21.90;92.40;;;;;;5029784;28;20966;-73
2023/05/14 12:19:15;;;;;;;4.67;4.13;;;22.00;91.20;;;;;;5030033;28;20472;-72
2023/05/14 12:21:46;;;;;;;4.33;4.03;;;21.90;92.60;;;;;;5029644;28;20448;-73
2023/05/14 12:24:20;;;;;;;4.00;3.70;;;21.90;90.20;;;;;;5029757;28;21087;-73
2023/05/14 12:26:47;;;;;;;4.20;3.70;;;21.90;88.20;;;;;;5029870;28;20417;-73
2023/05/14 12:29:15;;;;;;;3.90;3.60;;;21.90;91.30;;;;;;5029888;28;20463;-73
2023/05/14 12:31:48;;;;;;;4.13;3.70;;;22.00;88.70;;;;;;5030074;28;20923;-73
2023/05/14 12:34:15;;;;;;;4.37;3.87;;;22.00;87.20;;;;;;5029641;28;20846;-73
2023/05/14 12:36:41;;;;;;;4.17;3.77;;;22.10;91.90;;;;;;5029977;28;20432;-73